sensor_id;sensor_type;location;lat;lon;timestamp;P1;durP1;ratioP1;P2;durP2;ratioP2
3297;SDS011;1661;53.572;10.174;2023-04-15T00:00:35;6.40;;;5.73;;
3297;SDS011;1661;53.572;10.174;2023-04-15T00:03:03;9.97;;;8.03;;
3297;SDS011;1661;53.572;10.174;2023-04-15T00:05:30;8.27;;;7.43;;
3297;SDS011;1661;53.572;10.174;2023-04-15T00:07:57;7.33;;;6.73;;
3297;SDS011;1661;53.572;10.174;2023-04-15T00:10:24;9.73;;;5.80;;
3297;SDS011;1661;53.572;10.174;2023-04-15T00:12:51;4.90;;;4.50;;
3297;SDS011;1661;53.572;10.174;2023-04-15T00:15:18;5.90;;;5.40;;
3297;SDS011;1661;53.572;10.174;2023-04-15T00:17:45;7.00;;;6.07;;
3297;SDS011;1661;53.572;10.174;2023-04-15T00:20:13;5.53;;;5.03;;
3297;SDS011;1661;53.572;10.174;2023-04-15T00:22:40;7.03;;;6.23;;
3297;SDS011;1661;53.572;10.174;2023-04-15T00:25:07;5.23;;;4.50;;
3297;SDS011;1661;53.572;10.174;2023-04-15T00:27:34;9.10;;;5.40;;
3297;SDS011;1661;53.572;10.174;2023-04-15T00:30:01;7.27;;;5.23;;
3297;SDS011;1661;53.572;10.174;2023-04-15T00:32:29;5.23;;;4.73;;
3297;SDS011;1661;53.572;10.174;2023-04-15T00:34:56;9.23;;;5.80;;
3297;SDS011;1661;53.572;10.174;2023-04-15T00:37:24;7.53;;;6.83;;
3297;SDS011;1661;53.572;10.174;2023-04-15T00:39:51;7.97;;;6.27;;
3297;SDS011;1661;53.572;10.174;2023-04-15T00:42:17;6.87;;;6.10;;
3297;SDS011;1661;53.572;10.174;2023-04-15T00:44:45;7.60;;;6.13;;
3297;SDS011;1661;53.572;10.174;2023-04-15T00:47:12;6.23;;;5.60;;
3297;SDS011;1661;53.572;10.174;2023-04-15T00:49:40;4.70;;;4.30;;
3297;SDS011;1661;53.572;10.174;2023-04-15T00:52:07;6.57;;;5.97;;
3297;SDS011;1661;53.572;10.174;2023-04-15T00:54:36;6.57;;;5.97;;
3297;SDS011;1661;53.572;10.174;2023-04-15T00:57:04;5.73;;;5.13;;
3297;SDS011;1661;53.572;10.174;2023-04-15T00:59:31;10.50;;;6.10;;
3297;SDS011;1661;53.572;10.174;2023-04-15T01:01:59;5.53;;;4.90;;
3297;SDS011;1661;53.572;10.174;2023-04-15T01:04:26;5.03;;;4.53;;
3297;SDS011;1661;53.572;10.174;2023-04-15T01:06:53;10.40;;;6.97;;
3297;SDS011;1661;53.572;10.174;2023-04-15T01:09:20;7.57;;;6.77;;
3297;SDS011;1661;53.572;10.174;2023-04-15T01:11:48;7.33;;;6.63;;
3297;SDS011;1661;53.572;10.174;2023-04-15T01:14:15;9.93;;;7.97;;
3297;SDS011;1661;53.572;10.174;2023-04-15T01:16:42;8.30;;;7.50;;
3297;SDS011;1661;53.572;10.174;2023-04-15T01:19:09;7.57;;;6.87;;
3297;SDS011;1661;53.572;10.174;2023-04-15T01:21:36;9.60;;;5.97;;
3297;SDS011;1661;53.572;10.174;2023-04-15T01:24:04;9.13;;;7.30;;
3297;SDS011;1661;53.572;10.174;2023-04-15T01:26:36;8.23;;;7.40;;
3297;SDS011;1661;53.572;10.174;2023-04-15T01:29:03;6.20;;;5.37;;
3297;SDS011;1661;53.572;10.174;2023-04-15T01:31:30;7.00;;;6.30;;
3297;SDS011;1661;53.572;10.174;2023-04-15T01:33:57;8.73;;;6.57;;
3297;SDS011;1661;53.572;10.174;2023-04-15T01:36:24;7.77;;;7.07;;
3297;SDS011;1661;53.572;10.174;2023-04-15T01:38:51;8.53;;;7.03;;
3297;SDS011;1661;53.572;10.174;2023-04-15T01:41:20;5.63;;;5.00;;
3297;SDS011;1661;53.572;10.174;2023-04-15T01:43:50;5.40;;;5.00;;
3297;SDS011;1661;53.572;10.174;2023-04-15T01:46:17;6.47;;;5.80;;
3297;SDS011;1661;53.572;10.174;2023-04-15T01:48:44;7.40;;;5.60;;
3297;SDS011;1661;53.572;10.174;2023-04-15T01:51:11;7.00;;;6.33;;
3297;SDS011;1661;53.572;10.174;2023-04-15T01:53:38;8.60;;;7.70;;
3297;SDS011;1661;53.572;10.174;2023-04-15T01:56:05;8.90;;;8.03;;
3297;SDS011;1661;53.572;10.174;2023-04-15T01:58:32;8.80;;;7.87;;
3297;SDS011;1661;53.572;10.174;2023-04-15T02:01:06;5.53;;;5.03;;
3297;SDS011;1661;53.572;10.174;2023-04-15T02:03:34;9.40;;;7.80;;
3297;SDS011;1661;53.572;10.174;2023-04-15T02:06:01;8.27;;;7.40;;
3297;SDS011;1661;53.572;10.174;2023-04-15T02:08:28;12.07;;;7.37;;
3297;SDS011;1661;53.572;10.174;2023-04-15T02:10:55;8.53;;;7.70;;
3297;SDS011;1661;53.572;10.174;2023-04-15T02:13:22;12.27;;;8.83;;
3297;SDS011;1661;53.572;10.174;2023-04-15T02:15:49;8.17;;;6.67;;
3297;SDS011;1661;53.572;10.174;2023-04-15T02:18:17;11.67;;;9.30;;
3297;SDS011;1661;53.572;10.174;2023-04-15T02:20:44;11.27;;;8.90;;
3297;SDS011;1661;53.572;10.174;2023-04-15T02:23:12;11.27;;;8.50;;
3297;SDS011;1661;53.572;10.174;2023-04-15T02:25:39;15.00;;;11.90;;
3297;SDS011;1661;53.572;10.174;2023-04-15T02:28:06;11.53;;;10.27;;
3297;SDS011;1661;53.572;10.174;2023-04-15T02:30:33;12.43;;;9.30;;
3297;SDS011;1661;53.572;10.174;2023-04-15T02:33:00;15.10;;;10.37;;
3297;SDS011;1661;53.572;10.174;2023-04-15T02:35:28;14.73;;;10.93;;
3297;SDS011;1661;53.572;10.174;2023-04-15T02:37:56;13.10;;;9.93;;
3297;SDS011;1661;53.572;10.174;2023-04-15T02:40:22;15.63;;;12.03;;
3297;SDS011;1661;53.572;10.174;2023-04-15T02:42:50;17.70;;;12.73;;
3297;SDS011;1661;53.572;10.174;2023-04-15T02:45:16;16.80;;;11.80;;
3297;SDS011;1661;53.572;10.174;2023-04-15T02:47:47;20.67;;;13.10;;
3297;SDS011;1661;53.572;10.174;2023-04-15T02:50:16;13.47;;;11.47;;
3297;SDS011;1661;53.572;10.174;2023-04-15T02:52:45;18.83;;;13.43;;
3297;SDS011;1661;53.572;10.174;2023-04-15T02:55:12;22.50;;;14.23;;
3297;SDS011;1661;53.572;10.174;2023-04-15T02:57:42;21.93;;;14.13;;
3297;SDS011;1661;53.572;10.174;2023-04-15T03:00:09;26.13;;;16.67;;
3297;SDS011;1661;53.572;10.174;2023-04-15T03:02:37;22.97;;;14.80;;
3297;SDS011;1661;53.572;10.174;2023-04-15T03:05:10;23.50;;;15.97;;
3297;SDS011;1661;53.572;10.174;2023-04-15T03:07:38;25.47;;;16.40;;
3297;SDS011;1661;53.572;10.174;2023-04-15T03:10:07;25.77;;;15.93;;
3297;SDS011;1661;53.572;10.174;2023-04-15T03:12:38;19.43;;;13.80;;
3297;SDS011;1661;53.572;10.174;2023-04-15T03:15:05;23.10;;;14.07;;
3297;SDS011;1661;53.572;10.174;2023-04-15T03:17:33;25.30;;;15.93;;
3297;SDS011;1661;53.572;10.174;2023-04-15T03:20:00;31.27;;;17.90;;
3297;SDS011;1661;53.572;10.174;2023-04-15T03:22:28;29.43;;;17.73;;
3297;SDS011;1661;53.572;10.174;2023-04-15T03:24:54;30.13;;;17.13;;
3297;SDS011;1661;53.572;10.174;2023-04-15T03:27:22;26.93;;;17.23;;
3297;SDS011;1661;53.572;10.174;2023-04-15T03:29:49;34.63;;;19.60;;
3297;SDS011;1661;53.572;10.174;2023-04-15T03:32:16;21.60;;;12.63;;
3297;SDS011;1661;53.572;10.174;2023-04-15T03:34:43;23.17;;;14.00;;
3297;SDS011;1661;53.572;10.174;2023-04-15T03:37:10;31.67;;;18.70;;
3297;SDS011;1661;53.572;10.174;2023-04-15T03:39:37;29.50;;;14.67;;
3297;SDS011;1661;53.572;10.174;2023-04-15T03:42:04;30.03;;;19.70;;
3297;SDS011;1661;53.572;10.174;2023-04-15T03:44:32;33.33;;;17.80;;
3297;SDS011;1661;53.572;10.174;2023-04-15T03:46:58;28.47;;;18.23;;
3297;SDS011;1661;53.572;10.174;2023-04-15T03:49:25;26.77;;;14.80;;
3297;SDS011;1661;53.572;10.174;2023-04-15T03:51:52;22.50;;;14.77;;
3297;SDS011;1661;53.572;10.174;2023-04-15T03:54:19;30.00;;;20.43;;
3297;SDS011;1661;53.572;10.174;2023-04-15T03:56:46;33.70;;;20.83;;
3297;SDS011;1661;53.572;10.174;2023-04-15T03:59:13;40.67;;;19.90;;
3297;SDS011;1661;53.572;10.174;2023-04-15T04:01:42;31.60;;;18.90;;
3297;SDS011;1661;53.572;10.174;2023-04-15T04:04:08;29.00;;;19.30;;
3297;SDS011;1661;53.572;10.174;2023-04-15T04:06:38;21.27;;;12.97;;
3297;SDS011;1661;53.572;10.174;2023-04-15T04:09:05;19.93;;;14.33;;
3297;SDS011;1661;53.572;10.174;2023-04-15T04:11:32;34.07;;;19.73;;
3297;SDS011;1661;53.572;10.174;2023-04-15T04:13:59;32.20;;;16.80;;
3297;SDS011;1661;53.572;10.174;2023-04-15T04:16:25;34.63;;;18.63;;
3297;SDS011;1661;53.572;10.174;2023-04-15T04:18:53;27.20;;;17.00;;
3297;SDS011;1661;53.572;10.174;2023-04-15T04:21:20;30.07;;;17.90;;
3297;SDS011;1661;53.572;10.174;2023-04-15T04:23:47;31.40;;;19.30;;
3297;SDS011;1661;53.572;10.174;2023-04-15T04:26:14;34.63;;;19.80;;
3297;SDS011;1661;53.572;10.174;2023-04-15T04:28:44;40.80;;;23.43;;
3297;SDS011;1661;53.572;10.174;2023-04-15T04:31:11;43.13;;;25.53;;
3297;SDS011;1661;53.572;10.174;2023-04-15T04:33:37;41.33;;;24.33;;
3297;SDS011;1661;53.572;10.174;2023-04-15T04:36:08;33.73;;;19.70;;
3297;SDS011;1661;53.572;10.174;2023-04-15T04:38:35;42.07;;;24.87;;
3297;SDS011;1661;53.572;10.174;2023-04-15T04:41:02;48.10;;;26.53;;
3297;SDS011;1661;53.572;10.174;2023-04-15T04:43:29;47.00;;;29.97;;
3297;SDS011;1661;53.572;10.174;2023-04-15T04:45:56;49.53;;;25.30;;
3297;SDS011;1661;53.572;10.174;2023-04-15T04:48:22;51.03;;;29.50;;
3297;SDS011;1661;53.572;10.174;2023-04-15T04:50:50;35.73;;;22.90;;
3297;SDS011;1661;53.572;10.174;2023-04-15T04:53:18;41.57;;;22.77;;
3297;SDS011;1661;53.572;10.174;2023-04-15T04:55:45;58.00;;;30.10;;
3297;SDS011;1661;53.572;10.174;2023-04-15T04:58:12;47.67;;;27.03;;
3297;SDS011;1661;53.572;10.174;2023-04-15T05:00:39;52.50;;;27.53;;
3297;SDS011;1661;53.572;10.174;2023-04-15T05:03:06;58.57;;;30.43;;
3297;SDS011;1661;53.572;10.174;2023-04-15T05:05:33;46.70;;;25.43;;
3297;SDS011;1661;53.572;10.174;2023-04-15T05:08:00;40.20;;;22.03;;
3297;SDS011;1661;53.572;10.174;2023-04-15T05:10:29;55.50;;;31.87;;
3297;SDS011;1661;53.572;10.174;2023-04-15T05:12:55;39.20;;;26.63;;
3297;SDS011;1661;53.572;10.174;2023-04-15T05:15:22;63.87;;;34.97;;
3297;SDS011;1661;53.572;10.174;2023-04-15T05:17:49;49.23;;;27.07;;
3297;SDS011;1661;53.572;10.174;2023-04-15T05:20:16;60.57;;;35.70;;
3297;SDS011;1661;53.572;10.174;2023-04-15T05:22:43;61.93;;;34.97;;
3297;SDS011;1661;53.572;10.174;2023-04-15T05:25:10;57.47;;;32.87;;
3297;SDS011;1661;53.572;10.174;2023-04-15T05:27:39;55.20;;;32.03;;
3297;SDS011;1661;53.572;10.174;2023-04-15T05:30:06;53.63;;;32.60;;
3297;SDS011;1661;53.572;10.174;2023-04-15T05:32:34;61.07;;;33.80;;
3297;SDS011;1661;53.572;10.174;2023-04-15T05:35:00;44.10;;;26.83;;
3297;SDS011;1661;53.572;10.174;2023-04-15T05:37:27;67.77;;;37.83;;
3297;SDS011;1661;53.572;10.174;2023-04-15T05:39:54;68.03;;;35.20;;
3297;SDS011;1661;53.572;10.174;2023-04-15T05:42:21;42.40;;;26.70;;
3297;SDS011;1661;53.572;10.174;2023-04-15T05:44:49;63.23;;;36.60;;
3297;SDS011;1661;53.572;10.174;2023-04-15T05:47:16;49.77;;;28.30;;
3297;SDS011;1661;53.572;10.174;2023-04-15T05:49:42;51.33;;;30.47;;
3297;SDS011;1661;53.572;10.174;2023-04-15T05:52:11;48.50;;;29.57;;
3297;SDS011;1661;53.572;10.174;2023-04-15T05:54:38;60.37;;;36.53;;
3297;SDS011;1661;53.572;10.174;2023-04-15T05:57:05;51.50;;;31.60;;
3297;SDS011;1661;53.572;10.174;2023-04-15T05:59:32;62.07;;;35.50;;
3297;SDS011;1661;53.572;10.174;2023-04-15T06:02:00;60.67;;;37.70;;
3297;SDS011;1661;53.572;10.174;2023-04-15T06:04:27;62.40;;;36.20;;
3297;SDS011;1661;53.572;10.174;2023-04-15T06:06:54;71.70;;;39.67;;
3297;SDS011;1661;53.572;10.174;2023-04-15T06:09:21;58.90;;;34.20;;
3297;SDS011;1661;53.572;10.174;2023-04-15T06:11:50;55.87;;;32.70;;
3297;SDS011;1661;53.572;10.174;2023-04-15T06:14:17;67.23;;;36.03;;
3297;SDS011;1661;53.572;10.174;2023-04-15T06:16:44;55.03;;;33.70;;
3297;SDS011;1661;53.572;10.174;2023-04-15T06:19:12;64.27;;;36.57;;
3297;SDS011;1661;53.572;10.174;2023-04-15T06:21:39;85.93;;;41.93;;
3297;SDS011;1661;53.572;10.174;2023-04-15T06:24:06;53.33;;;32.20;;
3297;SDS011;1661;53.572;10.174;2023-04-15T06:26:33;66.40;;;36.70;;
3297;SDS011;1661;53.572;10.174;2023-04-15T06:29:00;72.17;;;40.27;;
3297;SDS011;1661;53.572;10.174;2023-04-15T06:31:27;71.17;;;38.13;;
3297;SDS011;1661;53.572;10.174;2023-04-15T06:33:54;68.00;;;38.67;;
3297;SDS011;1661;53.572;10.174;2023-04-15T06:36:22;63.40;;;34.27;;
3297;SDS011;1661;53.572;10.174;2023-04-15T06:38:49;77.23;;;35.80;;
3297;SDS011;1661;53.572;10.174;2023-04-15T06:41:15;50.53;;;31.37;;
3297;SDS011;1661;53.572;10.174;2023-04-15T06:43:43;69.90;;;39.07;;
3297;SDS011;1661;53.572;10.174;2023-04-15T06:46:10;64.57;;;36.33;;
3297;SDS011;1661;53.572;10.174;2023-04-15T06:48:36;57.23;;;33.87;;
3297;SDS011;1661;53.572;10.174;2023-04-15T06:51:03;64.90;;;37.60;;
3297;SDS011;1661;53.572;10.174;2023-04-15T06:53:32;69.67;;;40.17;;
3297;SDS011;1661;53.572;10.174;2023-04-15T06:55:59;70.20;;;38.40;;
3297;SDS011;1661;53.572;10.174;2023-04-15T06:58:26;51.30;;;30.20;;
3297;SDS011;1661;53.572;10.174;2023-04-15T07:00:53;61.67;;;33.17;;
3297;SDS011;1661;53.572;10.174;2023-04-15T07:03:20;60.10;;;32.90;;
3297;SDS011;1661;53.572;10.174;2023-04-15T07:05:46;59.70;;;35.53;;
3297;SDS011;1661;53.572;10.174;2023-04-15T07:08:13;58.27;;;33.90;;
3297;SDS011;1661;53.572;10.174;2023-04-15T07:10:45;52.00;;;31.00;;
3297;SDS011;1661;53.572;10.174;2023-04-15T07:13:11;65.77;;;36.03;;
3297;SDS011;1661;53.572;10.174;2023-04-15T07:15:38;65.57;;;40.27;;
3297;SDS011;1661;53.572;10.174;2023-04-15T07:18:05;69.40;;;39.40;;
3297;SDS011;1661;53.572;10.174;2023-04-15T07:20:33;71.20;;;41.37;;
3297;SDS011;1661;53.572;10.174;2023-04-15T07:23:00;57.27;;;33.63;;
3297;SDS011;1661;53.572;10.174;2023-04-15T07:25:27;61.80;;;35.00;;
3297;SDS011;1661;53.572;10.174;2023-04-15T07:27:58;72.97;;;37.90;;
3297;SDS011;1661;53.572;10.174;2023-04-15T07:30:25;84.27;;;43.97;;
3297;SDS011;1661;53.572;10.174;2023-04-15T07:32:51;80.27;;;43.70;;
3297;SDS011;1661;53.572;10.174;2023-04-15T07:35:21;68.37;;;39.10;;
3297;SDS011;1661;53.572;10.174;2023-04-15T07:37:52;95.03;;;47.57;;
3297;SDS011;1661;53.572;10.174;2023-04-15T07:40:19;63.73;;;35.87;;
3297;SDS011;1661;53.572;10.174;2023-04-15T07:42:46;71.40;;;38.70;;
3297;SDS011;1661;53.572;10.174;2023-04-15T07:45:14;81.27;;;40.10;;
3297;SDS011;1661;53.572;10.174;2023-04-15T07:47:41;70.97;;;37.17;;
3297;SDS011;1661;53.572;10.174;2023-04-15T07:50:08;98.63;;;49.23;;
3297;SDS011;1661;53.572;10.174;2023-04-15T07:52:35;99.67;;;50.47;;
3297;SDS011;1661;53.572;10.174;2023-04-15T07:55:04;78.87;;;47.10;;
3297;SDS011;1661;53.572;10.174;2023-04-15T07:57:34;70.10;;;41.30;;
3297;SDS011;1661;53.572;10.174;2023-04-15T08:00:01;66.73;;;37.10;;
3297;SDS011;1661;53.572;10.174;2023-04-15T08:02:31;63.67;;;38.00;;
3297;SDS011;1661;53.572;10.174;2023-04-15T08:05:01;66.37;;;38.80;;
3297;SDS011;1661;53.572;10.174;2023-04-15T08:07:28;65.17;;;36.03;;
3297;SDS011;1661;53.572;10.174;2023-04-15T08:09:55;66.37;;;39.10;;
3297;SDS011;1661;53.572;10.174;2023-04-15T08:12:22;72.63;;;40.47;;
3297;SDS011;1661;53.572;10.174;2023-04-15T08:14:49;64.53;;;38.87;;
3297;SDS011;1661;53.572;10.174;2023-04-15T08:17:16;63.77;;;37.87;;
3297;SDS011;1661;53.572;10.174;2023-04-15T08:19:49;62.30;;;36.93;;
3297;SDS011;1661;53.572;10.174;2023-04-15T08:22:17;73.97;;;44.33;;
3297;SDS011;1661;53.572;10.174;2023-04-15T08:24:44;59.27;;;36.87;;
3297;SDS011;1661;53.572;10.174;2023-04-15T08:27:11;66.70;;;35.47;;
3297;SDS011;1661;53.572;10.174;2023-04-15T08:29:38;60.80;;;36.53;;
3297;SDS011;1661;53.572;10.174;2023-04-15T08:32:05;76.83;;;41.97;;
3297;SDS011;1661;53.572;10.174;2023-04-15T08:34:32;63.97;;;36.80;;
3297;SDS011;1661;53.572;10.174;2023-04-15T08:37:01;65.37;;;39.67;;
3297;SDS011;1661;53.572;10.174;2023-04-15T08:39:27;69.20;;;43.00;;
3297;SDS011;1661;53.572;10.174;2023-04-15T08:41:55;81.93;;;45.97;;
3297;SDS011;1661;53.572;10.174;2023-04-15T08:44:31;75.53;;;46.27;;
3297;SDS011;1661;53.572;10.174;2023-04-15T08:46:59;71.10;;;43.47;;
3297;SDS011;1661;53.572;10.174;2023-04-15T08:49:27;63.90;;;38.93;;
3297;SDS011;1661;53.572;10.174;2023-04-15T08:51:55;61.20;;;38.03;;
3297;SDS011;1661;53.572;10.174;2023-04-15T08:54:25;70.93;;;45.70;;
3297;SDS011;1661;53.572;10.174;2023-04-15T08:56:53;71.53;;;40.30;;
3297;SDS011;1661;53.572;10.174;2023-04-15T08:59:21;77.60;;;43.77;;
3297;SDS011;1661;53.572;10.174;2023-04-15T09:01:48;72.83;;;40.83;;
3297;SDS011;1661;53.572;10.174;2023-04-15T09:04:15;81.77;;;42.00;;
3297;SDS011;1661;53.572;10.174;2023-04-15T09:06:43;59.20;;;37.20;;
3297;SDS011;1661;53.572;10.174;2023-04-15T09:09:11;82.70;;;47.93;;
3297;SDS011;1661;53.572;10.174;2023-04-15T09:11:40;68.80;;;43.03;;
3297;SDS011;1661;53.572;10.174;2023-04-15T09:14:07;74.43;;;45.07;;
3297;SDS011;1661;53.572;10.174;2023-04-15T09:19:22;65.57;;;41.30;;
3297;SDS011;1661;53.572;10.174;2023-04-15T09:21:50;64.47;;;36.37;;
3297;SDS011;1661;53.572;10.174;2023-04-15T09:24:18;57.53;;;36.20;;
3297;SDS011;1661;53.572;10.174;2023-04-15T09:26:46;58.53;;;35.53;;
3297;SDS011;1661;53.572;10.174;2023-04-15T09:29:17;63.90;;;39.47;;
3297;SDS011;1661;53.572;10.174;2023-04-15T09:31:43;64.40;;;37.00;;
3297;SDS011;1661;53.572;10.174;2023-04-15T09:34:11;55.50;;;35.50;;
3297;SDS011;1661;53.572;10.174;2023-04-15T09:36:40;57.97;;;37.57;;
3297;SDS011;1661;53.572;10.174;2023-04-15T09:39:18;49.10;;;32.57;;
3297;SDS011;1661;53.572;10.174;2023-04-15T09:41:47;44.83;;;30.07;;
3297;SDS011;1661;53.572;10.174;2023-04-15T09:44:30;45.10;;;28.10;;
3297;SDS011;1661;53.572;10.174;2023-04-15T09:46:57;44.47;;;31.00;;
3297;SDS011;1661;53.572;10.174;2023-04-15T09:49:29;45.87;;;31.20;;
3297;SDS011;1661;53.572;10.174;2023-04-15T09:51:57;41.90;;;29.07;;
3297;SDS011;1661;53.572;10.174;2023-04-15T09:54:24;39.30;;;28.03;;
3297;SDS011;1661;53.572;10.174;2023-04-15T09:57:06;32.17;;;25.23;;
3297;SDS011;1661;53.572;10.174;2023-04-15T09:59:34;41.23;;;30.70;;
3297;SDS011;1661;53.572;10.174;2023-04-15T10:02:01;41.70;;;30.13;;
3297;SDS011;1661;53.572;10.174;2023-04-15T10:04:31;40.53;;;27.17;;
3297;SDS011;1661;53.572;10.174;2023-04-15T10:07:05;32.70;;;24.90;;
3297;SDS011;1661;53.572;10.174;2023-04-15T10:09:34;42.57;;;28.07;;
3297;SDS011;1661;53.572;10.174;2023-04-15T10:12:02;30.10;;;24.40;;
3297;SDS011;1661;53.572;10.174;2023-04-15T10:14:32;33.87;;;23.83;;
3297;SDS011;1661;53.572;10.174;2023-04-15T10:17:02;36.60;;;25.60;;
3297;SDS011;1661;53.572;10.174;2023-04-15T10:19:35;35.30;;;27.17;;
3297;SDS011;1661;53.572;10.174;2023-04-15T10:22:02;30.20;;;24.20;;
3297;SDS011;1661;53.572;10.174;2023-04-15T10:24:30;31.33;;;22.33;;
3297;SDS011;1661;53.572;10.174;2023-04-15T10:26:58;34.63;;;24.13;;
3297;SDS011;1661;53.572;10.174;2023-04-15T10:29:25;25.77;;;20.53;;
3297;SDS011;1661;53.572;10.174;2023-04-15T10:31:54;38.67;;;27.23;;
3297;SDS011;1661;53.572;10.174;2023-04-15T10:34:24;33.73;;;25.27;;
3297;SDS011;1661;53.572;10.174;2023-04-15T10:36:54;29.57;;;23.37;;
3297;SDS011;1661;53.572;10.174;2023-04-15T10:39:40;32.23;;;23.60;;
3297;SDS011;1661;53.572;10.174;2023-04-15T10:42:09;34.37;;;23.77;;
3297;SDS011;1661;53.572;10.174;2023-04-15T10:44:37;37.00;;;26.03;;
3297;SDS011;1661;53.572;10.174;2023-04-15T10:47:12;29.53;;;25.30;;
3297;SDS011;1661;53.572;10.174;2023-04-15T10:49:46;26.90;;;22.07;;
3297;SDS011;1661;53.572;10.174;2023-04-15T10:52:14;28.83;;;21.70;;
3297;SDS011;1661;53.572;10.174;2023-04-15T10:54:42;30.23;;;22.40;;
3297;SDS011;1661;53.572;10.174;2023-04-15T10:57:15;25.37;;;18.40;;
3297;SDS011;1661;53.572;10.174;2023-04-15T11:02:43;27.60;;;19.93;;
3297;SDS011;1661;53.572;10.174;2023-04-15T11:05:12;22.40;;;20.00;;
3297;SDS011;1661;53.572;10.174;2023-04-15T11:07:46;27.20;;;21.60;;
3297;SDS011;1661;53.572;10.174;2023-04-15T11:13:24;25.00;;;18.47;;
3297;SDS011;1661;53.572;10.174;2023-04-15T11:16:00;28.00;;;21.33;;
3297;SDS011;1661;53.572;10.174;2023-04-15T11:18:29;23.07;;;19.23;;
3297;SDS011;1661;53.572;10.174;2023-04-15T11:20:59;29.67;;;20.87;;
3297;SDS011;1661;53.572;10.174;2023-04-15T11:23:28;21.83;;;18.30;;
3297;SDS011;1661;53.572;10.174;2023-04-15T11:25:59;23.70;;;20.40;;
3297;SDS011;1661;53.572;10.174;2023-04-15T11:28:30;23.10;;;17.63;;
3297;SDS011;1661;53.572;10.174;2023-04-15T11:30:58;24.17;;;19.23;;
3297;SDS011;1661;53.572;10.174;2023-04-15T11:33:32;23.60;;;18.80;;
3297;SDS011;1661;53.572;10.174;2023-04-15T11:35:59;26.60;;;20.57;;
3297;SDS011;1661;53.572;10.174;2023-04-15T11:38:27;24.67;;;18.97;;
3297;SDS011;1661;53.572;10.174;2023-04-15T11:40:55;22.40;;;18.93;;
3297;SDS011;1661;53.572;10.174;2023-04-15T11:43:22;17.73;;;15.87;;
3297;SDS011;1661;53.572;10.174;2023-04-15T11:45:50;21.53;;;18.73;;
3297;SDS011;1661;53.572;10.174;2023-04-15T11:48:18;29.13;;;19.53;;
3297;SDS011;1661;53.572;10.174;2023-04-15T11:50:51;16.17;;;14.57;;
3297;SDS011;1661;53.572;10.174;2023-04-15T11:53:19;19.37;;;16.53;;
3297;SDS011;1661;53.572;10.174;2023-04-15T11:55:53;16.77;;;15.00;;
3297;SDS011;1661;53.572;10.174;2023-04-15T11:58:21;25.50;;;17.20;;
3297;SDS011;1661;53.572;10.174;2023-04-15T12:00:56;19.10;;;15.30;;
3297;SDS011;1661;53.572;10.174;2023-04-15T12:03:24;19.10;;;17.10;;
3297;SDS011;1661;53.572;10.174;2023-04-15T12:06:10;16.60;;;14.67;;
3297;SDS011;1661;53.572;10.174;2023-04-15T12:08:49;17.50;;;15.80;;
3297;SDS011;1661;53.572;10.174;2023-04-15T12:11:30;22.67;;;18.30;;
3297;SDS011;1661;53.572;10.174;2023-04-15T12:14:03;17.67;;;15.77;;
3297;SDS011;1661;53.572;10.174;2023-04-15T12:16:32;22.30;;;17.63;;
3297;SDS011;1661;53.572;10.174;2023-04-15T12:19:03;18.10;;;16.23;;
3297;SDS011;1661;53.572;10.174;2023-04-15T12:21:34;20.27;;;17.87;;
3297;SDS011;1661;53.572;10.174;2023-04-15T12:24:02;23.97;;;16.30;;
3297;SDS011;1661;53.572;10.174;2023-04-15T12:26:32;16.00;;;14.37;;
3297;SDS011;1661;53.572;10.174;2023-04-15T12:29:01;23.43;;;17.10;;
3297;SDS011;1661;53.572;10.174;2023-04-15T12:31:28;19.37;;;16.83;;
3297;SDS011;1661;53.572;10.174;2023-04-15T12:33:55;22.63;;;16.93;;
3297;SDS011;1661;53.572;10.174;2023-04-15T12:36:23;25.60;;;17.37;;
3297;SDS011;1661;53.572;10.174;2023-04-15T12:38:51;16.37;;;14.00;;
3297;SDS011;1661;53.572;10.174;2023-04-15T12:41:18;22.00;;;18.47;;
3297;SDS011;1661;53.572;10.174;2023-04-15T12:43:45;17.70;;;15.97;;
3297;SDS011;1661;53.572;10.174;2023-04-15T12:46:12;20.17;;;14.47;;
3297;SDS011;1661;53.572;10.174;2023-04-15T12:48:42;18.10;;;16.20;;
3297;SDS011;1661;53.572;10.174;2023-04-15T12:51:09;26.13;;;18.83;;
3297;SDS011;1661;53.572;10.174;2023-04-15T12:53:36;19.43;;;17.37;;
3297;SDS011;1661;53.572;10.174;2023-04-15T12:56:04;25.93;;;18.83;;
3297;SDS011;1661;53.572;10.174;2023-04-15T12:58:31;19.23;;;17.17;;
3297;SDS011;1661;53.572;10.174;2023-04-15T13:00:58;22.33;;;16.53;;
3297;SDS011;1661;53.572;10.174;2023-04-15T13:03:25;19.40;;;16.37;;
3297;SDS011;1661;53.572;10.174;2023-04-15T13:05:52;28.40;;;20.50;;
3297;SDS011;1661;53.572;10.174;2023-04-15T13:08:19;17.17;;;15.40;;
3297;SDS011;1661;53.572;10.174;2023-04-15T13:10:45;23.27;;;20.77;;
3297;SDS011;1661;53.572;10.174;2023-04-15T13:13:14;19.80;;;17.67;;
3297;SDS011;1661;53.572;10.174;2023-04-15T13:15:43;18.57;;;16.10;;
3297;SDS011;1661;53.572;10.174;2023-04-15T13:18:10;17.30;;;15.47;;
3297;SDS011;1661;53.572;10.174;2023-04-15T13:20:37;19.80;;;15.97;;
3297;SDS011;1661;53.572;10.174;2023-04-15T13:23:04;24.00;;;17.60;;
3297;SDS011;1661;53.572;10.174;2023-04-15T13:25:34;23.10;;;17.50;;
3297;SDS011;1661;53.572;10.174;2023-04-15T13:28:01;17.00;;;14.90;;
3297;SDS011;1661;53.572;10.174;2023-04-15T13:30:32;21.87;;;17.07;;
3297;SDS011;1661;53.572;10.174;2023-04-15T13:32:59;19.70;;;17.30;;
3297;SDS011;1661;53.572;10.174;2023-04-15T13:35:26;28.37;;;17.97;;
3297;SDS011;1661;53.572;10.174;2023-04-15T13:37:53;21.17;;;17.80;;
3297;SDS011;1661;53.572;10.174;2023-04-15T13:40:20;21.30;;;17.10;;
3297;SDS011;1661;53.572;10.174;2023-04-15T13:42:47;22.10;;;18.97;;
3297;SDS011;1661;53.572;10.174;2023-04-15T13:45:14;22.43;;;17.83;;
3297;SDS011;1661;53.572;10.174;2023-04-15T13:47:42;16.47;;;14.70;;
3297;SDS011;1661;53.572;10.174;2023-04-15T13:50:09;17.77;;;15.90;;
3297;SDS011;1661;53.572;10.174;2023-04-15T13:52:36;18.10;;;16.20;;
3297;SDS011;1661;53.572;10.174;2023-04-15T13:55:09;17.57;;;15.70;;
3297;SDS011;1661;53.572;10.174;2023-04-15T13:57:36;19.80;;;15.70;;
3297;SDS011;1661;53.572;10.174;2023-04-15T14:00:06;19.50;;;16.37;;
3297;SDS011;1661;53.572;10.174;2023-04-15T14:02:34;17.90;;;14.23;;
3297;SDS011;1661;53.572;10.174;2023-04-15T14:05:02;17.97;;;15.87;;
3297;SDS011;1661;53.572;10.174;2023-04-15T14:07:29;26.07;;;15.97;;
3297;SDS011;1661;53.572;10.174;2023-04-15T14:09:56;17.40;;;15.60;;
3297;SDS011;1661;53.572;10.174;2023-04-15T14:12:23;15.93;;;14.33;;
3297;SDS011;1661;53.572;10.174;2023-04-15T14:14:50;17.37;;;15.53;;
3297;SDS011;1661;53.572;10.174;2023-04-15T14:17:17;20.03;;;17.10;;
3297;SDS011;1661;53.572;10.174;2023-04-15T14:19:44;17.20;;;15.47;;
3297;SDS011;1661;53.572;10.174;2023-04-15T14:22:12;16.93;;;14.60;;
3297;SDS011;1661;53.572;10.174;2023-04-15T14:24:39;17.97;;;14.63;;
3297;SDS011;1661;53.572;10.174;2023-04-15T14:27:06;19.53;;;14.90;;
3297;SDS011;1661;53.572;10.174;2023-04-15T14:29:35;17.60;;;15.90;;
3297;SDS011;1661;53.572;10.174;2023-04-15T14:32:02;17.27;;;15.30;;
3297;SDS011;1661;53.572;10.174;2023-04-15T14:34:29;14.47;;;13.03;;
3297;SDS011;1661;53.572;10.174;2023-04-15T14:36:55;14.47;;;13.07;;
3297;SDS011;1661;53.572;10.174;2023-04-15T14:39:26;15.77;;;13.83;;
3297;SDS011;1661;53.572;10.174;2023-04-15T14:41:53;17.43;;;13.80;;
3297;SDS011;1661;53.572;10.174;2023-04-15T14:44:20;15.40;;;13.77;;
3297;SDS011;1661;53.572;10.174;2023-04-15T14:46:48;15.63;;;14.07;;
3297;SDS011;1661;53.572;10.174;2023-04-15T14:49:15;13.83;;;12.50;;
3297;SDS011;1661;53.572;10.174;2023-04-15T14:51:42;13.47;;;11.33;;